Time;durP1;ratioP1;P1;durP2;ratioP2;P2;SDS_P1;SDS_P2;PMS_P1;PMS_P2;Temp;Humidity;BMP_temperature;BMP_pressure;BME280_temperature;BME280_humidity;BME280_pressure;Samples;Min_cycle;Max_cycle;Signal;HPM_P1;HPM_P2
2022/03/22 00:01:24;;;;;;;61.63;36.92;;;5.70;99.90;;;;;;5018845;28;20064;-92
2022/03/22 00:03:50;;;;;;;64.18;37.35;;;5.60;99.90;;;;;;5018802;28;20041;-91
2022/03/22 00:06:18;;;;;;;61.90;36.92;;;5.60;99.90;;;;;;5035794;28;20051;-92
2022/03/22 00:08:44;;;;;;;66.78;37.30;;;5.60;99.90;;;;;;5018387;28;20045;-92
2022/03/22 00:11:11;;;;;;;61.65;36.45;;;5.60;99.90;;;;;;5052152;28;20593;-92
2022/03/22 00:13:37;;;;;;;62.85;37.75;;;5.50;99.90;;;;;;5035442;28;20051;-92
2022/03/22 00:16:03;;;;;;;65.90;37.58;;;5.50;99.90;;;;;;5034876;28;20064;-92
2022/03/22 00:18:30;;;;;;;63.03;36.55;;;5.50;99.90;;;;;;5035514;28;20057;-92
2022/03/22 00:20:56;;;;;;;68.75;36.60;;;5.50;99.90;;;;;;5051993;28;20045;-92
2022/03/22 00:23:23;;;;;;;57.55;35.45;;;5.50;99.90;;;;;;5037956;28;20509;-92
2022/03/22 00:25:49;;;;;;;60.97;35.97;;;5.50;99.90;;;;;;5039118;28;20053;-92
2022/03/22 00:28:14;;;;;;;61.40;37.05;;;5.50;99.90;;;;;;5023031;28;20048;-92
2022/03/22 00:30:40;;;;;;;58.60;36.70;;;5.50;99.90;;;;;;5023044;28;20053;-92
2022/03/22 00:33:08;;;;;;;59.08;36.08;;;5.60;99.90;;;;;;5055843;28;20044;-92
2022/03/22 00:35:36;;;;;;;66.07;36.45;;;5.60;99.90;;;;;;5022086;28;20048;-92
2022/03/22 00:38:05;;;;;;;66.07;35.17;;;5.60;99.90;;;;;;5022571;28;20045;-92
2022/03/22 00:40:31;;;;;;;59.90;35.83;;;5.60;99.90;;;;;;5022193;28;20513;-92
2022/03/22 00:42:57;;;;;;;62.90;36.88;;;5.50;99.90;;;;;;5022643;28;20045;-92
2022/03/22 00:45:29;;;;;;;62.75;36.35;;;5.60;99.90;;;;;;5038984;28;20386;-93
2022/03/22 00:47:57;;;;;;;55.55;35.47;;;5.50;99.90;;;;;;5022351;28;20060;-92
2022/03/22 00:50:28;;;;;;;66.18;37.50;;;5.50;99.90;;;;;;5039116;28;20079;-93
2022/03/22 00:52:56;;;;;;;64.60;37.92;;;5.50;99.90;;;;;;5022209;28;20056;-91
2022/03/22 00:55:23;;;;;;;64.35;36.53;;;5.50;99.90;;;;;;5039011;28;20049;-92
2022/03/22 00:57:51;;;;;;;62.63;37.90;;;5.50;99.90;;;;;;5021885;28;20037;-92
2022/03/22 01:00:18;;;;;;;65.57;37.25;;;5.40;99.90;;;;;;5022021;28;20399;-92
2022/03/22 01:02:49;;;;;;;65.13;38.30;;;5.40;99.90;;;;;;5038837;28;20041;-93
2022/03/22 01:05:19;;;;;;;61.00;37.28;;;5.30;99.90;;;;;;5022123;28;20049;-92
2022/03/22 01:07:46;;;;;;;64.50;37.70;;;5.30;99.90;;;;;;5021905;28;20048;-92
2022/03/22 01:10:13;;;;;;;65.70;36.17;;;5.30;99.90;;;;;;5055281;28;20045;-93
2022/03/22 01:12:41;;;;;;;57.00;35.70;;;5.20;99.90;;;;;;5022128;28;20075;-92
2022/03/22 01:15:15;;;;;;;66.22;36.67;;;5.20;99.90;;;;;;5021724;28;20467;-92
2022/03/22 01:17:45;;;;;;;61.80;36.25;;;5.20;99.90;;;;;;5021653;28;20590;-92
2022/03/22 01:20:12;;;;;;;62.87;37.20;;;5.20;99.90;;;;;;5021804;28;20045;-92
2022/03/22 01:22:43;;;;;;;61.08;35.22;;;5.10;99.90;;;;;;5038275;28;20319;-92
2022/03/22 01:25:10;;;;;;;64.72;36.55;;;5.10;99.90;;;;;;5038364;28;20041;-92
2022/03/22 01:27:37;;;;;;;62.13;36.80;;;5.10;99.90;;;;;;5021662;28;20049;-92
2022/03/22 01:30:07;;;;;;;65.45;36.55;;;5.10;99.90;;;;;;5021654;28;20508;-92
2022/03/22 01:32:34;;;;;;;65.03;36.15;;;5.10;99.90;;;;;;5037859;28;20139;-92
2022/03/22 01:35:01;;;;;;;59.60;35.58;;;5.10;99.90;;;;;;5037980;28;20080;-92
2022/03/22 01:37:27;;;;;;;67.40;37.28;;;5.10;99.90;;;;;;5021277;28;20064;-92
2022/03/22 01:39:52;;;;;;;62.03;37.35;;;5.10;99.90;;;;;;5020941;28;20108;-92
2022/03/22 01:42:18;;;;;;;60.95;35.72;;;5.10;99.90;;;;;;5037893;28;20091;-92
2022/03/22 01:44:45;;;;;;;65.90;36.78;;;5.00;99.90;;;;;;5021722;28;20037;-92
2022/03/22 01:47:12;;;;;;;63.35;36.95;;;5.00;99.90;;;;;;5021598;28;20049;-92
2022/03/22 01:49:38;;;;;;;56.45;36.05;;;4.90;99.90;;;;;;5021137;28;20491;-92
2022/03/22 01:52:05;;;;;;;70.68;37.45;;;4.90;99.90;;;;;;5020928;28;20418;-92
2022/03/22 01:54:31;;;;;;;59.10;36.40;;;4.80;99.90;;;;;;5021105;28;20505;-90
2022/03/22 01:56:57;;;;;;;67.07;36.97;;;4.80;99.90;;;;;;5021098;28;20116;-91
2022/03/22 01:59:22;;;;;;;60.15;35.80;;;4.80;99.90;;;;;;5020456;28;20061;-92
2022/03/22 02:07:21;;;;;;;57.55;35.25;;;4.70;99.90;;;;;;5037193;28;20078;-91
2022/03/22 02:09:47;;;;;;;56.10;35.78;;;4.70;99.90;;;;;;5037203;28;20132;-91
2022/03/22 02:12:12;;;;;;;58.92;34.75;;;4.70;99.90;;;;;;5020790;28;20076;-91
2022/03/22 02:14:39;;;;;;;58.88;36.20;;;4.70;99.90;;;;;;5037027;28;20056;-91
2022/03/22 02:17:07;;;;;;;60.72;36.20;;;4.70;99.90;;;;;;5036591;28;20521;-92
2022/03/22 02:19:35;;;;;;;58.03;35.63;;;4.70;99.90;;;;;;5020343;28;20057;-91
2022/03/22 02:22:05;;;;;;;57.63;35.65;;;4.70;99.90;;;;;;5020571;28;20056;-92
2022/03/22 02:24:31;;;;;;;57.78;36.58;;;4.80;99.90;;;;;;5037067;28;20044;-91
2022/03/22 02:26:57;;;;;;;52.22;33.67;;;4.80;99.90;;;;;;5019767;28;20487;-92
2022/03/22 02:29:22;;;;;;;56.75;34.08;;;4.90;99.90;;;;;;5020295;28;20037;-92
2022/03/22 02:31:48;;;;;;;59.53;35.92;;;4.90;99.90;;;;;;5020178;28;20483;-91
2022/03/22 02:34:14;;;;;;;56.47;36.50;;;5.00;99.90;;;;;;5037120;28;20124;-92
2022/03/22 02:36:39;;;;;;;56.88;34.40;;;5.10;99.90;;;;;;5020026;28;20037;-92
2022/03/22 02:39:05;;;;;;;59.63;34.10;;;5.10;99.90;;;;;;5019926;28;20060;-91
2022/03/22 02:41:32;;;;;;;53.08;34.63;;;5.20;99.90;;;;;;5036738;28;20040;-92
2022/03/22 02:43:57;;;;;;;59.17;34.53;;;5.20;99.90;;;;;;5036390;28;20040;-92
2022/03/22 02:46:23;;;;;;;50.70;33.30;;;5.20;99.90;;;;;;5035645;28;20103;-92
2022/03/22 02:48:49;;;;;;;57.25;35.00;;;5.20;99.90;;;;;;5020488;28;20045;-91
2022/03/22 02:51:15;;;;;;;53.35;32.70;;;5.20;99.90;;;;;;5036451;28;20194;-91
2022/03/22 02:53:41;;;;;;;59.58;32.95;;;5.20;99.90;;;;;;5020254;28;20135;-91
2022/03/22 02:56:07;;;;;;;54.92;34.08;;;5.10;99.90;;;;;;5036359;28;20132;-92
2022/03/22 02:58:33;;;;;;;53.20;33.72;;;5.10;99.90;;;;;;5019681;28;20056;-92
2022/03/22 03:01:00;;;;;;;59.22;34.97;;;5.10;99.90;;;;;;5019547;28;20512;-92
2022/03/22 03:03:26;;;;;;;57.40;34.05;;;5.10;99.90;;;;;;5019450;28;20422;-92
2022/03/22 03:05:52;;;;;;;57.53;34.47;;;5.10;99.90;;;;;;5036196;28;20049;-92
2022/03/22 03:08:19;;;;;;;60.92;34.85;;;5.10;99.90;;;;;;5053073;28;20061;-92
2022/03/22 03:10:46;;;;;;;61.05;35.85;;;5.10;99.90;;;;;;5019908;28;20102;-92
2022/03/22 03:13:12;;;;;;;58.22;34.67;;;5.10;99.90;;;;;;5019521;28;20498;-92
2022/03/22 03:15:38;;;;;;;58.38;35.25;;;5.10;99.90;;;;;;5035602;28;20048;-92
2022/03/22 03:18:04;;;;;;;54.20;34.92;;;5.00;99.90;;;;;;5035747;28;20045;-92
2022/03/22 03:20:30;;;;;;;65.82;37.03;;;5.00;99.90;;;;;;5019579;28;20047;-92
2022/03/22 03:22:56;;;;;;;58.50;36.70;;;4.90;99.90;;;;;;5036037;28;20083;-92
2022/03/22 03:25:22;;;;;;;66.35;38.00;;;4.80;99.90;;;;;;5019435;28;20056;-91
2022/03/22 03:27:48;;;;;;;62.83;35.20;;;4.80;99.90;;;;;;5035979;28;20398;-92
2022/03/22 03:30:14;;;;;;;64.20;36.65;;;4.70;99.90;;;;;;5035648;28;20045;-91
2022/03/22 03:32:40;;;;;;;56.40;33.83;;;4.70;99.90;;;;;;5018217;28;20048;-92
2022/03/22 03:35:06;;;;;;;62.75;36.65;;;4.60;99.90;;;;;;5035560;28;20099;-91
2022/03/22 03:37:35;;;;;;;61.60;36.65;;;4.60;99.90;;;;;;5019116;28;20041;-92
2022/03/22 03:40:04;;;;;;;61.13;35.83;;;4.50;99.90;;;;;;5035859;28;20091;-92
2022/03/22 03:42:30;;;;;;;59.22;37.53;;;4.50;99.90;;;;;;5018923;28;20044;-91
2022/03/22 03:47:42;;;;;;;58.85;34.38;;;4.50;99.90;;;;;;5035424;28;20057;-92
2022/03/22 03:50:09;;;;;;;60.05;36.72;;;4.40;99.90;;;;;;5019305;28;20415;-92
2022/03/22 03:52:37;;;;;;;58.03;35.33;;;4.40;99.90;;;;;;5018342;28;20102;-92
2022/03/22 03:55:05;;;;;;;55.25;34.53;;;4.30;99.90;;;;;;5035417;28;20045;-92
2022/03/22 03:57:32;;;;;;;62.05;35.67;;;4.30;99.90;;;;;;5017558;28;20049;-93
2022/03/22 03:59:58;;;;;;;58.30;35.53;;;4.30;99.90;;;;;;5018682;28;20045;-92
2022/03/22 04:02:24;;;;;;;58.55;34.88;;;4.20;99.90;;;;;;5019194;28;20071;-91
2022/03/22 04:04:53;;;;;;;57.80;35.33;;;4.20;99.90;;;;;;5018932;28;20490;-92
2022/03/22 04:07:22;;;;;;;62.85;36.05;;;4.20;99.90;;;;;;5018359;28;20392;-92
2022/03/22 04:09:48;;;;;;;66.68;37.05;;;4.20;99.90;;;;;;5035506;28;20049;-92
2022/03/22 04:12:19;;;;;;;64.25;35.67;;;4.20;99.90;;;;;;5051827;28;20487;-91
2022/03/22 04:14:44;;;;;;;61.08;35.60;;;4.10;99.90;;;;;;5018445;28;20049;-92
2022/03/22 04:17:10;;;;;;;58.60;36.67;;;4.20;99.90;;;;;;5017886;28;20053;-92
2022/03/22 04:19:37;;;;;;;58.50;36.10;;;4.10;99.90;;;;;;5035580;28;20056;-92
2022/03/22 04:22:04;;;;;;;60.20;36.25;;;4.10;99.90;;;;;;5018796;28;20066;-93
2022/03/22 04:24:30;;;;;;;64.25;35.92;;;4.10;99.90;;;;;;5035092;28;20080;-92
2022/03/22 04:32:41;;;;;;;58.60;35.75;;;4.10;99.90;;;;;;5018585;28;20084;-92
2022/03/22 04:35:17;;;;;;;61.17;35.15;;;4.00;99.90;;;;;;5035176;28;20052;-92
2022/03/22 04:37:44;;;;;;;63.42;36.50;;;4.00;99.90;;;;;;5034400;28;20056;-91
2022/03/22 04:40:11;;;;;;;59.45;35.53;;;4.00;99.90;;;;;;5051957;28;20041;-92
2022/03/22 04:42:37;;;;;;;61.42;35.92;;;3.90;99.90;;;;;;5035034;28;20052;-92
2022/03/22 04:45:06;;;;;;;58.83;35.58;;;3.80;99.90;;;;;;5018434;28;20079;-92
2022/03/22 04:47:33;;;;;;;61.63;36.80;;;3.80;99.90;;;;;;5018383;28;20049;-92
2022/03/22 04:49:59;;;;;;;64.65;37.40;;;3.80;99.90;;;;;;5018229;28;20482;-92
2022/03/22 04:57:54;;;;;;;62.00;35.47;;;3.70;99.90;;;;;;5034565;28;20045;-91
2022/03/22 05:00:20;;;;;;;68.00;38.58;;;3.70;99.90;;;;;;5017997;28;20127;-91
2022/03/22 05:02:47;;;;;;;63.10;36.65;;;3.60;99.90;;;;;;5034561;28;20041;-92
2022/03/22 05:05:14;;;;;;;60.78;35.58;;;3.60;99.90;;;;;;5018210;28;20048;-92
2022/03/22 05:07:41;;;;;;;65.82;36.17;;;3.60;99.90;;;;;;5034761;28;20064;-91
2022/03/22 05:10:07;;;;;;;67.90;37.47;;;3.50;99.90;;;;;;5021982;28;20131;-91
2022/03/22 05:12:35;;;;;;;63.75;37.63;;;3.50;99.90;;;;;;5055059;28;20098;-91
2022/03/22 05:15:00;;;;;;;63.33;36.35;;;3.50;99.90;;;;;;5021899;28;20097;-91
2022/03/22 05:17:26;;;;;;;67.95;37.80;;;3.50;99.90;;;;;;5038051;28;20088;-92
2022/03/22 05:19:52;;;;;;;64.70;36.90;;;3.50;99.90;;;;;;5021479;28;20484;-91
2022/03/22 05:22:18;;;;;;;65.75;37.08;;;3.50;99.90;;;;;;5037457;28;20136;-91
2022/03/22 05:24:46;;;;;;;63.80;36.67;;;3.50;99.90;;;;;;5021639;28;20056;-91
2022/03/22 05:27:17;;;;;;;62.30;36.78;;;3.50;99.90;;;;;;5037885;28;20076;-91
2022/03/22 05:29:43;;;;;;;64.50;36.45;;;3.50;99.90;;;;;;5021156;28;20057;-91
2022/03/22 05:32:09;;;;;;;65.70;38.78;;;3.50;99.90;;;;;;5021011;28;20040;-91
2022/03/22 05:34:35;;;;;;;58.78;35.88;;;3.50;99.90;;;;;;5037414;28;20106;-91
2022/03/22 05:37:01;;;;;;;65.97;37.90;;;3.50;99.90;;;;;;5020881;28;20423;-91
2022/03/22 05:39:26;;;;;;;62.05;35.92;;;3.50;99.90;;;;;;5021449;28;20538;-91
2022/03/22 05:41:52;;;;;;;67.18;38.10;;;3.50;99.90;;;;;;5038064;28;20049;-92
2022/03/22 05:44:20;;;;;;;64.57;38.13;;;3.50;99.90;;;;;;5021617;28;20055;-91
2022/03/22 05:46:46;;;;;;;66.80;36.50;;;3.50;99.90;;;;;;5038538;28;20037;-92
2022/03/22 05:49:13;;;;;;;65.50;37.70;;;3.50;99.90;;;;;;5037682;28;20052;-92
2022/03/22 05:51:39;;;;;;;64.25;36.95;;;3.50;99.90;;;;;;5037619;28;20498;-92
2022/03/22 05:54:05;;;;;;;67.15;37.55;;;3.50;99.90;;;;;;5054246;28;20095;-92
2022/03/22 05:56:31;;;;;;;77.25;39.03;;;3.50;99.90;;;;;;5039670;28;20068;-92
2022/03/22 05:58:59;;;;;;;67.97;39.78;;;3.50;99.90;;;;;;5025800;28;20550;-91
2022/03/22 06:01:25;;;;;;;68.40;35.83;;;3.60;99.90;;;;;;5035830;28;20076;-92
2022/03/22 06:03:50;;;;;;;62.30;35.55;;;3.60;99.90;;;;;;5037169;28;20052;-92
2022/03/22 06:06:16;;;;;;;68.32;38.25;;;3.60;99.90;;;;;;5037640;28;20129;-92
2022/03/22 06:08:42;;;;;;;70.25;37.50;;;3.70;99.90;;;;;;5037455;28;20508;-91
2022/03/22 06:11:08;;;;;;;63.53;37.45;;;3.70;99.90;;;;;;5037314;28;20170;-92
2022/03/22 06:13:34;;;;;;;68.25;37.85;;;3.80;99.90;;;;;;5037253;28;20045;-91
2022/03/22 06:16:04;;;;;;;60.90;37.00;;;3.80;99.90;;;;;;5036825;28;20505;-91
2022/03/22 06:18:30;;;;;;;66.93;37.10;;;3.90;99.90;;;;;;5054580;28;20049;-91
2022/03/22 06:20:56;;;;;;;59.88;36.42;;;3.90;99.90;;;;;;5036385;28;20156;-92
2022/03/22 06:23:23;;;;;;;59.35;34.08;;;4.00;99.90;;;;;;5037168;28;20049;-92
2022/03/22 06:25:49;;;;;;;63.38;36.25;;;4.10;99.90;;;;;;5035949;28;20064;-91
2022/03/22 06:28:14;;;;;;;58.95;35.42;;;4.20;99.90;;;;;;5037215;28;20494;-92
2022/03/22 06:30:41;;;;;;;58.65;35.15;;;4.40;99.90;;;;;;5037479;28;20138;-92
2022/03/22 06:33:17;;;;;;;62.45;35.03;;;4.50;99.90;;;;;;5036847;28;20128;-92
2022/03/22 06:35:44;;;;;;;65.03;34.90;;;4.60;99.90;;;;;;5036686;28;20052;-91
2022/03/22 06:38:10;;;;;;;68.75;37.22;;;4.70;99.90;;;;;;5037210;28;20045;-91
2022/03/22 06:40:39;;;;;;;51.17;32.45;;;4.80;99.90;;;;;;5036771;28;20502;-92
2022/03/22 06:43:06;;;;;;;61.60;33.22;;;4.90;99.90;;;;;;5036744;28;20049;-91
2022/03/22 06:45:32;;;;;;;56.15;34.53;;;5.00;99.90;;;;;;5036475;28;20053;-91
2022/03/22 06:47:58;;;;;;;54.45;32.28;;;5.20;99.90;;;;;;5036384;28;20148;-92
2022/03/22 06:50:25;;;;;;;56.05;33.78;;;5.60;99.90;;;;;;5036588;28;20098;-92
2022/03/22 06:52:51;;;;;;;61.55;34.28;;;5.40;99.90;;;;;;5036246;28;20498;-91
2022/03/22 06:55:22;;;;;;;47.40;30.92;;;5.60;99.90;;;;;;5036553;28;20052;-92
2022/03/22 06:57:49;;;;;;;47.75;31.60;;;5.70;99.90;;;;;;5036013;28;20041;-92
2022/03/22 07:00:16;;;;;;;53.05;32.08;;;5.90;99.90;;;;;;5020185;28;20051;-92
2022/03/22 07:02:42;;;;;;;54.22;33.10;;;6.10;99.90;;;;;;5036417;28;20502;-92
2022/03/22 07:05:09;;;;;;;54.20;33.15;;;6.20;99.90;;;;;;5036343;28;20128;-93
2022/03/22 07:07:35;;;;;;;56.35;31.23;;;6.40;99.90;;;;;;5036443;28;20087;-93
2022/03/22 07:10:02;;;;;;;49.72;29.98;;;6.60;99.90;;;;;;5036375;28;20053;-92
2022/03/22 07:12:27;;;;;;;52.17;29.13;;;6.80;99.90;;;;;;5052862;28;20398;-92
2022/03/22 07:14:53;;;;;;;50.33;29.63;;;7.00;99.90;;;;;;5036004;28;20041;-92
2022/03/22 07:17:19;;;;;;;45.65;29.30;;;7.20;99.90;;;;;;5019106;28;20085;-91
2022/03/22 07:19:45;;;;;;;48.13;28.30;;;7.40;99.90;;;;;;5036397;28;20128;-92
2022/03/22 07:22:11;;;;;;;46.78;28.15;;;7.60;99.90;;;;;;5019721;28;20049;-92
2022/03/22 07:24:36;;;;;;;44.35;28.83;;;7.80;99.90;;;;;;5036034;28;20045;-94
2022/03/22 07:27:04;;;;;;;43.58;27.92;;;8.00;99.90;;;;;;5036150;28;20410;-92
2022/03/22 07:29:30;;;;;;;44.53;28.02;;;8.20;99.90;;;;;;5036406;28;20049;-91
2022/03/22 07:31:59;;;;;;;45.20;26.33;;;8.40;99.90;;;;;;5037304;28;20049;-94
2022/03/22 07:34:26;;;;;;;43.00;26.35;;;8.60;99.90;;;;;;5035917;28;20132;-93
2022/03/22 07:36:52;;;;;;;40.38;26.15;;;8.70;99.90;;;;;;5036228;28;20102;-93
2022/03/22 07:39:20;;;;;;;43.45;25.45;;;8.90;99.90;;;;;;5036407;28;20131;-92
2022/03/22 07:41:47;;;;;;;44.22;26.38;;;9.10;99.90;;;;;;5019429;28;20044;-93
2022/03/22 07:44:13;;;;;;;45.38;26.85;;;9.30;99.90;;;;;;5036051;28;20431;-92
2022/03/22 07:46:40;;;;;;;45.97;26.27;;;9.40;99.90;;;;;;5039029;28;20586;-92
2022/03/22 07:54:35;;;;;;;43.22;26.10;;;9.80;99.90;;;;;;5042143;28;20136;-93
2022/03/22 07:57:02;;;;;;;40.20;26.25;;;9.90;99.90;;;;;;5050390;28;20053;-93
2022/03/22 07:59:28;;;;;;;38.50;24.83;;;10.10;99.90;;;;;;5049831;28;20113;-93
2022/03/22 08:01:54;;;;;;;39.47;25.30;;;10.20;99.90;;;;;;5058821;28;20497;-93
2022/03/22 08:04:20;;;;;;;33.53;24.73;;;10.40;99.90;;;;;;5021403;28;20422;-92
2022/03/22 08:06:46;;;;;;;36.17;24.90;;;10.50;99.90;;;;;;5037847;28;20049;-93
2022/03/22 08:09:11;;;;;;;37.40;25.45;;;10.60;99.90;;;;;;5036889;28;20179;-92
2022/03/22 08:11:39;;;;;;;37.47;24.70;;;10.70;99.90;;;;;;5036436;28;20103;-92
2022/03/22 08:14:06;;;;;;;45.35;25.38;;;10.80;99.90;;;;;;5036292;28;20494;-93
2022/03/22 08:16:32;;;;;;;39.88;25.92;;;11.00;99.90;;;;;;5035898;28;20088;-93
2022/03/22 08:18:58;;;;;;;40.97;24.92;;;11.10;99.90;;;;;;5019906;28;20064;-93
2022/03/22 08:21:24;;;;;;;40.80;24.80;;;11.20;99.90;;;;;;5036345;28;20049;-92
2022/03/22 08:23:50;;;;;;;37.08;24.35;;;11.40;99.90;;;;;;5020266;28;20449;-92
2022/03/22 08:26:15;;;;;;;38.30;25.15;;;11.50;99.90;;;;;;5036839;28;20048;-92
2022/03/22 08:28:42;;;;;;;38.65;23.77;;;11.70;99.90;;;;;;5036073;28;20045;-93
2022/03/22 08:31:11;;;;;;;38.40;23.42;;;11.80;99.90;;;;;;5036451;28;20048;-92
2022/03/22 08:33:37;;;;;;;34.33;23.63;;;11.90;99.90;;;;;;5019967;28;20127;-91
2022/03/22 08:36:03;;;;;;;42.55;23.65;;;12.10;99.90;;;;;;5053091;28;20154;-93
2022/03/22 08:38:29;;;;;;;35.33;23.13;;;12.20;99.90;;;;;;5036288;28;20143;-93
2022/03/22 08:40:56;;;;;;;35.78;23.83;;;12.40;99.90;;;;;;5038274;28;20049;-91
2022/03/22 08:43:25;;;;;;;38.53;23.85;;;12.50;99.90;;;;;;5021012;28;20064;-93
2022/03/22 08:45:51;;;;;;;32.55;22.92;;;12.70;99.90;;;;;;5025288;28;20068;-93
2022/03/22 08:48:19;;;;;;;33.75;22.77;;;12.90;99.90;;;;;;5057948;28;20087;-93
2022/03/22 08:53:44;;;;;;;36.78;23.35;;;13.30;99.90;;;;;;5236101;23;20133;-93
2022/03/22 08:56:11;;;;;;;35.97;22.23;;;13.80;99.90;;;;;;4953126;29;20044;-95
2022/03/22 08:58:37;;;;;;;34.28;22.98;;;14.00;98.00;;;;;;4956448;29;20047;-94
2022/03/22 09:01:59;;;;;;;37.72;23.35;;;14.10;97.50;;;;;;4946932;29;20059;-95
2022/03/22 09:18:54;;;;;;;34.45;23.50;;;18.90;71.60;;;;;;4902005;27;20164;-95
2022/03/22 09:21:20;;;;;;;33.35;24.17;;;19.60;68.20;;;;;;4886018;29;20092;-94
2022/03/22 09:23:46;;;;;;;38.45;24.05;;;20.10;64.90;;;;;;4885831;29;20061;-94
2022/03/22 09:26:12;;;;;;;36.47;24.40;;;20.50;62.30;;;;;;4885672;29;20044;-93
2022/03/22 09:28:38;;;;;;;34.78;24.58;;;20.80;61.00;;;;;;4870930;29;20115;-93
2022/03/22 09:31:04;;;;;;;31.10;23.63;;;21.20;59.00;;;;;;4886628;29;20112;-95
2022/03/22 09:33:30;;;;;;;33.38;23.73;;;21.60;57.10;;;;;;4870042;29;20196;-95
2022/03/22 09:35:57;;;;;;;30.40;22.92;;;21.80;56.10;;;;;;4885654;29;20088;-94
2022/03/22 09:38:24;;;;;;;33.03;23.10;;;22.20;55.80;;;;;;4870272;29;20499;-94
2022/03/22 09:40:53;;;;;;;30.30;23.70;;;22.50;54.10;;;;;;4885630;29;20059;-95
2022/03/22 09:43:22;;;;;;;32.72;23.42;;;22.70;52.60;;;;;;4869725;29;20169;-94
2022/03/22 09:45:51;;;;;;;34.03;24.50;;;23.00;52.90;;;;;;4885230;29;20483;-94
2022/03/22 09:48:17;;;;;;;30.90;23.20;;;23.30;51.20;;;;;;4885216;29;20065;-94
2022/03/22 09:53:45;;;;;;;34.60;22.98;;;23.80;48.60;;;;;;4845504;29;20559;-94
2022/03/22 09:56:10;;;;;;;33.53;24.10;;;23.70;48.80;;;;;;4883816;29;20044;-95
2022/03/22 09:58:36;;;;;;;29.85;23.13;;;23.70;48.10;;;;;;4885196;29;20056;-95
2022/03/22 10:01:02;;;;;;;31.63;22.95;;;23.90;48.50;;;;;;4869188;29;20044;-96
2022/03/22 10:03:28;;;;;;;30.35;22.92;;;24.40;47.20;;;;;;4869965;29;20056;-95
2022/03/22 10:06:12;;;;;;;31.65;22.98;;;24.70;46.60;;;;;;4884794;29;20054;-95
2022/03/22 10:08:50;;;;;;;32.95;23.95;;;24.90;45.20;;;;;;4884982;29;20135;-95
2022/03/22 10:11:17;;;;;;;31.02;24.00;;;24.90;45.10;;;;;;4869368;29;20072;-95
2022/03/22 10:13:54;;;;;;;29.25;22.90;;;25.10;45.00;;;;;;4885108;29;20053;-96
2022/03/22 10:16:20;;;;;;;28.25;21.10;;;25.30;44.60;;;;;;4884775;29;20049;-96
2022/03/22 10:18:46;;;;;;;27.77;22.38;;;25.40;44.50;;;;;;4888888;29;20064;-95
2022/03/22 10:21:12;;;;;;;32.17;22.30;;;25.50;43.60;;;;;;4888719;29;20049;-96
2022/03/22 10:23:48;;;;;;;30.58;22.40;;;25.40;43.20;;;;;;4884404;29;20068;-96
2022/03/22 10:26:14;;;;;;;29.98;22.88;;;25.50;43.70;;;;;;4870170;29;20550;-94
2022/03/22 10:28:52;;;;;;;30.73;22.35;;;25.70;43.40;;;;;;4895145;29;20112;-95
2022/03/22 10:31:18;;;;;;;30.20;23.00;;;25.90;42.30;;;;;;4879336;29;20060;-95
2022/03/22 10:33:52;;;;;;;28.52;23.15;;;26.20;42.50;;;;;;4891352;29;20044;-94
2022/03/22 10:36:24;;;;;;;28.92;23.52;;;26.40;41.90;;;;;;4892275;29;20045;-93
2022/03/22 10:38:57;;;;;;;31.85;23.17;;;26.40;41.20;;;;;;4892085;29;20060;-95
2022/03/22 10:41:25;;;;;;;34.33;22.77;;;26.50;41.10;;;;;;4891706;29;20064;-94
2022/03/22 10:44:10;;;;;;;30.92;23.13;;;26.50;40.60;;;;;;4891733;29;20049;-95
2022/03/22 10:46:38;;;;;;;28.42;21.92;;;26.50;40.80;;;;;;4876521;29;20047;-95
2022/03/22 10:49:10;;;;;;;29.83;22.85;;;26.50;40.60;;;;;;4876084;29;20044;-95
2022/03/22 10:51:56;;;;;;;30.20;23.63;;;26.50;40.20;;;;;;4876380;29;20055;-95
2022/03/22 10:54:25;;;;;;;31.42;23.42;;;26.60;39.90;;;;;;4888918;29;20052;-96
2022/03/22 10:56:54;;;;;;;32.92;22.13;;;26.90;40.00;;;;;;4870853;29;20041;-93
2022/03/22 10:59:22;;;;;;;28.90;21.50;;;27.10;39.20;;;;;;4870533;29;20048;-95
2022/03/22 11:01:49;;;;;;;28.00;20.65;;;27.10;39.30;;;;;;4870630;29;20059;-95
2022/03/22 11:04:15;;;;;;;29.70;21.27;;;27.20;39.20;;;;;;4870321;29;20056;-95
2022/03/22 11:06:48;;;;;;;28.40;22.73;;;27.40;39.30;;;;;;4871158;29;20044;-95
2022/03/22 11:09:20;;;;;;;31.50;22.25;;;27.60;38.50;;;;;;4870259;29;20045;-95
2022/03/22 11:11:47;;;;;;;26.75;21.80;;;27.90;38.30;;;;;;4870400;29;20191;-95
2022/03/22 11:14:16;;;;;;;29.23;22.00;;;28.10;38.60;;;;;;4887178;29;20056;-95
2022/03/22 11:16:46;;;;;;;31.70;21.65;;;28.30;39.00;;;;;;4871196;29;20045;-96
2022/03/22 11:19:12;;;;;;;29.88;22.02;;;28.60;37.50;;;;;;4885519;29;20056;-96
2022/03/22 11:21:38;;;;;;;31.55;23.17;;;28.70;36.80;;;;;;4886169;29;20064;-95
2022/03/22 11:24:09;;;;;;;31.02;23.25;;;28.50;37.10;;;;;;4884549;29;20407;-95
2022/03/22 11:26:47;;;;;;;33.63;22.67;;;28.50;37.70;;;;;;4868193;29;20506;-95
2022/03/22 11:29:17;;;;;;;32.13;22.40;;;28.70;37.40;;;;;;4868075;29;20052;-95
2022/03/22 11:34:08;;;;;;;30.35;22.35;;;28.90;36.60;;;;;;4868065;29;20052;-95
2022/03/22 11:34:32;;;;;;;30.67;22.98;;;28.90;36.20;;;;;;4888408;29;20070;-95
2022/03/22 11:36:59;;;;;;;30.27;22.90;;;28.80;36.60;;;;;;4868207;29;20049;-95
2022/03/22 11:42:16;;;;;;;31.90;23.13;;;28.90;35.90;;;;;;4884706;29;20093;-95
2022/03/22 11:44:42;;;;;;;;;;;28.90;35.50;;;;;;4883885;29;20129;-95
2022/03/22 11:47:12;;;;;;;30.67;21.42;;;29.00;36.60;;;;;;4883270;29;19970;-94
2022/03/22 11:49:54;;;;;;;32.75;22.65;;;29.00;36.40;;;;;;4867689;29;20045;-96
2022/03/22 11:52:35;;;;;;;32.30;23.17;;;29.20;35.40;;;;;;4867439;29;20055;-95
2022/03/22 11:55:07;;;;;;;29.73;22.17;;;29.30;36.60;;;;;;4883334;29;20084;-95
2022/03/22 11:57:43;;;;;;;30.50;22.63;;;29.70;35.60;;;;;;4870788;29;20088;-94
2022/03/22 12:00:11;;;;;;;31.77;21.77;;;30.00;35.20;;;;;;4888871;29;20041;-94
2022/03/22 12:02:39;;;;;;;26.90;21.17;;;30.10;34.30;;;;;;4905130;29;20063;-94
2022/03/22 12:05:05;;;;;;;36.22;22.50;;;29.90;34.40;;;;;;4896282;29;20110;-94
2022/03/22 12:07:34;;;;;;;30.25;22.95;;;30.00;34.40;;;;;;4885979;29;20052;-94
2022/03/22 12:10:11;;;;;;;31.25;22.95;;;30.00;33.80;;;;;;4884341;29;20063;-95
2022/03/22 12:12:38;;;;;;;28.30;21.55;;;30.00;34.20;;;;;;4870803;29;20048;-94
2022/03/22 12:15:10;;;;;;;28.13;21.77;;;30.00;34.40;;;;;;4867718;29;20044;-94
2022/03/22 12:17:37;;;;;;;28.88;20.70;;;29.80;33.90;;;;;;4883788;29;20080;-94
2022/03/22 12:20:11;;;;;;;28.70;20.92;;;29.80;35.00;;;;;;4874662;29;20116;-94
2022/03/22 12:22:44;;;;;;;26.40;18.63;;;30.20;34.30;;;;;;4887767;29;20056;-94
2022/03/22 12:25:12;;;;;;;27.63;19.98;;;30.10;33.10;;;;;;4889085;29;20048;-95
2022/03/22 12:27:56;;;;;;;26.88;19.70;;;30.00;33.60;;;;;;4878493;29;20083;-94
2022/03/22 12:30:27;;;;;;;28.48;20.23;;;30.10;33.90;;;;;;4893512;29;20513;-93
2022/03/22 12:32:55;;;;;;;25.75;20.17;;;30.40;33.30;;;;;;4878426;29;20059;-94
2022/03/22 12:35:23;;;;;;;24.90;19.17;;;30.60;33.60;;;;;;4896778;29;20062;-94
2022/03/22 12:37:50;;;;;;;25.95;21.05;;;30.60;33.10;;;;;;4877846;29;20044;-94
2022/03/22 12:40:17;;;;;;;30.83;20.80;;;30.60;32.50;;;;;;4878346;29;20044;-94
2022/03/22 12:42:44;;;;;;;27.45;19.83;;;30.60;32.90;;;;;;4879384;29;20049;-94
2022/03/22 12:45:11;;;;;;;26.88;20.50;;;30.60;33.20;;;;;;4881246;29;20111;-94
2022/03/22 12:47:39;;;;;;;28.65;19.55;;;30.80;32.60;;;;;;4893045;29;20048;-94
2022/03/22 12:50:07;;;;;;;28.10;20.17;;;30.90;32.60;;;;;;4877556;29;20052;-94
2022/03/22 12:52:33;;;;;;;27.30;19.73;;;31.00;32.80;;;;;;4878419;29;20059;-94
2022/03/22 12:54:58;;;;;;;29.33;19.80;;;31.20;32.20;;;;;;4893671;29;20052;-95
2022/03/22 12:57:24;;;;;;;26.27;19.70;;;31.10;32.40;;;;;;4887017;29;20495;-95
2022/03/22 12:59:51;;;;;;;28.30;20.90;;;31.00;32.70;;;;;;4886618;29;20053;-94
2022/03/22 13:02:19;;;;;;;27.50;19.65;;;30.90;32.10;;;;;;4871407;29;20483;-95
2022/03/22 13:04:48;;;;;;;27.42;19.25;;;30.70;32.10;;;;;;4871114;29;20060;-95
2022/03/22 13:07:21;;;;;;;29.27;20.30;;;30.60;31.80;;;;;;4870400;29;20059;-94
2022/03/22 13:12:33;;;;;;;25.25;18.42;;;30.40;32.20;;;;;;4885895;29;20112;-93
2022/03/22 13:15:05;;;;;;;26.95;19.10;;;30.60;32.60;;;;;;4886794;29;20052;-94
2022/03/22 13:17:42;;;;;;;24.38;18.75;;;30.80;31.70;;;;;;4885034;29;20060;-92
2022/03/22 13:20:17;;;;;;;27.40;18.20;;;30.90;31.80;;;;;;4886420;29;20411;-93
2022/03/22 13:23:08;;;;;;;23.33;17.50;;;31.10;31.80;;;;;;4885952;29;20048;-95
2022/03/22 13:25:39;;;;;;;25.90;19.50;;;31.50;31.10;;;;;;4872427;29;20052;-93
2022/03/22 13:28:04;;;;;;;27.23;19.50;;;31.50;31.30;;;;;;4869653;29;20045;-94